Asheville, NC (28806)

4:31 PM EDT on August 30, 2014 (GMT -0400)
Mount Carmel Acres | Change Station
CLOSE
Current Station
Personal Weather Station
Location: Asheville, NC
Elevation: 2220 ft
Nearby Weather Stations

Elev 2220 ft 35.62 °N, 82.63 °W | Updated 152 days ago

Thunderstorm
Thunderstorm
81 °F
Feels Like 81 °F
N
8
Wind Variable Wind from South
Gusts 10 mph

Today
High -- | Low -- °F
--% Chance of Precip.
Yesterday
High -- | Low -- °F
Precip. -- in
7:01 AM 8:00 PM
Waxing Crescent, 24% visible
Pressure 30.12 in
Visibility 10.0 miles
Clouds Few 4000 ft
Mostly Cloudy 8500 ft
Heat Index 81 °F
Dew Point 64 °F
Humidity 57%
Rainfall 0.00 in
Snow Depth Not available.
UV 4 out of 12
Pollen 9.10 out of 12
Ozone Good
PM2.5 Good
Flu Activity Not available.
METAR KAVL 301954Z 15006KT 10SM FEW040 BKN085 28/18 A3020 RMK AO2 SLP199 T02780183

More Conditions Fewer Conditions

Pressure 30.12 in
Visibility 10.0 miles
Clouds Few 4000 ft
Mostly Cloudy 8500 ft
Heat Index 81 °F
Dew Point 64 °F
Humidity 57%
Rainfall 0.00 in
Snow Depth Not available.
UV 4 out of 12
Pollen 9.10 out of 12
Ozone Good
PM2.5 Good
Flu Activity Not available.
METAR KAVL 301954Z 15006KT 10SM FEW040 BKN085 28/18 A3020 RMK AO2 SLP199 T02780183

More Conditions Fewer Conditions

10-Day Weather Forecast

Almanac

Astronomy

Aug. 30, 2014 Rise Set
Actual Time 7:01 AM EDT 8:00 PM EDT
Civil Twilight 6:34 AM EDT 8:26 PM EDT
Nautical Twilight 6:03 AM EDT 8:57 PM EDT
Astronomical Twilight 5:31 AM EDT 9:29 PM EDT
Moon 11:36 AM EDT 10:45 PM EDT
Length of Visible Light 13h 51m
Length of Day
12h 59m
Tomorrow will be 2m 9s shorter.
Waxing Crescent, 24% of the Moon is Illuminated
Today
Waxing Crescent
Sep 2
First Quarter
Sep 8
Full
Sep 15
Last Quarter
Sep 24
New

Today's Extremes

State Highs State Lows

Community

WunderPhotos

Upload Photos

1,748,623 photos uploaded!

WunderBlogs® & News

Nearby

Air Quality

  Air Quality AQ Index Pollutant
Yesterday Moderate
PM2.5
Yesterday Good
OZONE
Current Good
PM2.5
Current Good
OZONE
Saturday Good
PM2.5
Saturday Good
OZONE
Sunday Good
PM2.5
Sunday Good
OZONE
Monday Good
PM2.5
Monday Good
OZONE
Tuesday Good
PM2.5
Tuesday Good
OZONE

Snow Depth

Station Depth Elevation
No new snow has been reported.

Earthquake Activity

City Distance Mag. Time & Date
No recent earthquake activity has been reported nearby.
Minimum magnitude displayed is 2.5.

Coastal Water Temperatures

Place Temperature
No Stations Reporting

Nearby Weather Stations